This is the latest recevied weather packets stored in our database for station/object KC7KGF. If no packets are shown the sender has not sent any weather packets the latest 1 day(s).
| Time | Temp. | Humidity | Pressure | Rain* | Wind** | Luminosity | Snow |
|---|---|---|---|---|---|---|---|
| 1778094334 | 18.33° C | 32% | 1019.8 hPa | 0 mm | - | - | - |
| 1778088930 | 15.56° C | 34% | 1020.5 hPa | 0 mm | - | - | - |
| 1778087134 | 15° C | 36% | 1020.3 hPa | 0 mm | - | - | - |
| 1778078144 | 7.78° C | 75% | 1019.9 hPa | 0 mm | - | - | - |
| 1778072732 | -1.67° C | 92% | 1019.4 hPa | 0 mm | - | - | - |
| 1778070927 | -2.22° C | 91% | 1019 hPa | 0 mm | - | - | - |
| 1778065545 | -1.67° C | 89% | 1018.4 hPa | 0 mm | - | - | - |
| 1778063743 | -1.11° C | 88% | 1018.4 hPa | 0 mm | - | - | - |
| 1778052948 | 1.67° C | 81% | 1017.9 hPa | 0 mm | - | - | - |
| 1778045743 | 5° C | 69% | 1017.7 hPa | 0 mm | - | - | - |
| 1778043929 | 6.67° C | 62% | 1017.5 hPa | 0 mm | - | - | - |
| 1778042135 | 8.89° C | 53% | 1017.3 hPa | 0 mm | - | - | - |
| 1778040341 | 9.44° C | 50% | 1017 hPa | 0 mm | - | - | - |
| 1778038528 | 10° C | 48% | 1016.7 hPa | 0 mm | - | - | - |
| 1778036736 | 10.56° C | 47% | 1016.2 hPa | 0 mm | - | - | - |
| 1778034931 | 11.11° C | 45% | 1015.8 hPa | 0 mm | - | - | - |
| 1778033138 | 11.67° C | 44% | 1015.2 hPa | 0 mm | - | - | - |
| 1778031333 | 12.22° C | 42% | 1014.8 hPa | 0 mm | - | - | - |
| 1778029543 | 13.33° C | 41% | 1014.5 hPa | 0 mm | - | - | - |
| 1778027742 | 14.44° C | 39% | 1014.4 hPa | 0 mm | - | - | - |
| 1778025930 | 14.44° C | 42% | 1014 hPa | 0 mm | - | - | - |
| 1778024127 | 15° C | 41% | 1013.8 hPa | 0 mm | - | - | - |
| 1778022336 | 14.44° C | 48% | 1013.8 hPa | 0 mm | - | - | - |
| 1778020538 | 13.89° C | 54% | 1013.8 hPa | 0 mm | - | - | - |
| 1778018727 | 15° C | 54% | 1014 hPa | 0.25 mm | - | - | - |
* Rain latest hour (hover to see other rain measurements)
** Current wind speed in m/s (hover to see current wind gust speed)